sensor_id;sensor_type;location;lat;lon;timestamp;P1;durP1;ratioP1;P2;durP2;ratioP2
52564;SDS011;38460;53.106;7.004;2022-12-04T00:01:29;36.72;;;18.55;;
52564;SDS011;38460;53.106;7.004;2022-12-04T00:03:56;38.10;;;19.40;;
52564;SDS011;38460;53.106;7.004;2022-12-04T00:06:24;37.15;;;18.95;;
52564;SDS011;38460;53.106;7.004;2022-12-04T00:08:50;37.17;;;18.63;;
52564;SDS011;38460;53.106;7.004;2022-12-04T00:11:18;39.72;;;20.83;;
52564;SDS011;38460;53.106;7.004;2022-12-04T00:13:45;40.88;;;19.83;;
52564;SDS011;38460;53.106;7.004;2022-12-04T00:16:12;40.72;;;19.98;;
52564;SDS011;38460;53.106;7.004;2022-12-04T00:18:41;41.75;;;19.75;;
52564;SDS011;38460;53.106;7.004;2022-12-04T00:21:07;38.00;;;20.75;;
52564;SDS011;38460;53.106;7.004;2022-12-04T00:23:35;39.05;;;18.38;;
52564;SDS011;38460;53.106;7.004;2022-12-04T00:26:04;42.00;;;20.80;;
52564;SDS011;38460;53.106;7.004;2022-12-04T00:28:32;40.53;;;20.00;;
52564;SDS011;38460;53.106;7.004;2022-12-04T00:30:59;38.13;;;18.20;;
52564;SDS011;38460;53.106;7.004;2022-12-04T00:33:28;43.60;;;20.73;;
52564;SDS011;38460;53.106;7.004;2022-12-04T00:35:57;42.03;;;21.23;;
52564;SDS011;38460;53.106;7.004;2022-12-04T00:38:24;45.25;;;21.83;;
52564;SDS011;38460;53.106;7.004;2022-12-04T00:40:50;40.15;;;20.92;;
52564;SDS011;38460;53.106;7.004;2022-12-04T00:43:16;42.83;;;22.05;;
52564;SDS011;38460;53.106;7.004;2022-12-04T00:45:42;44.35;;;20.20;;
52564;SDS011;38460;53.106;7.004;2022-12-04T00:48:08;41.72;;;19.60;;
52564;SDS011;38460;53.106;7.004;2022-12-04T00:50:34;44.22;;;20.50;;
52564;SDS011;38460;53.106;7.004;2022-12-04T00:53:00;43.88;;;22.98;;
52564;SDS011;38460;53.106;7.004;2022-12-04T00:55:25;44.28;;;22.50;;
52564;SDS011;38460;53.106;7.004;2022-12-04T00:57:51;41.60;;;20.65;;
52564;SDS011;38460;53.106;7.004;2022-12-04T01:00:17;40.75;;;21.77;;
52564;SDS011;38460;53.106;7.004;2022-12-04T01:02:43;40.88;;;21.17;;
52564;SDS011;38460;53.106;7.004;2022-12-04T01:05:09;44.97;;;23.13;;
52564;SDS011;38460;53.106;7.004;2022-12-04T01:07:36;44.72;;;21.55;;
52564;SDS011;38460;53.106;7.004;2022-12-04T01:10:03;51.78;;;23.67;;
52564;SDS011;38460;53.106;7.004;2022-12-04T01:12:30;41.47;;;21.75;;
52564;SDS011;38460;53.106;7.004;2022-12-04T01:14:56;40.08;;;21.20;;
52564;SDS011;38460;53.106;7.004;2022-12-04T01:17:22;39.78;;;21.00;;
52564;SDS011;38460;53.106;7.004;2022-12-04T01:19:48;44.67;;;23.17;;
52564;SDS011;38460;53.106;7.004;2022-12-04T01:22:14;43.15;;;20.45;;
52564;SDS011;38460;53.106;7.004;2022-12-04T01:24:39;47.63;;;21.98;;
52564;SDS011;38460;53.106;7.004;2022-12-04T01:27:05;46.03;;;22.75;;
52564;SDS011;38460;53.106;7.004;2022-12-04T01:29:31;40.53;;;20.75;;
52564;SDS011;38460;53.106;7.004;2022-12-04T01:31:56;45.63;;;20.50;;
52564;SDS011;38460;53.106;7.004;2022-12-04T01:34:22;47.58;;;22.38;;
52564;SDS011;38460;53.106;7.004;2022-12-04T01:36:49;47.75;;;23.02;;
52564;SDS011;38460;53.106;7.004;2022-12-04T01:39:15;51.83;;;22.45;;
52564;SDS011;38460;53.106;7.004;2022-12-04T01:41:41;45.88;;;23.00;;
52564;SDS011;38460;53.106;7.004;2022-12-04T01:44:15;42.70;;;20.70;;
52564;SDS011;38460;53.106;7.004;2022-12-04T01:46:43;48.22;;;24.77;;
52564;SDS011;38460;53.106;7.004;2022-12-04T01:49:15;42.53;;;21.05;;
52564;SDS011;38460;53.106;7.004;2022-12-04T01:51:45;40.53;;;22.83;;
52564;SDS011;38460;53.106;7.004;2022-12-04T01:54:16;40.88;;;21.25;;
52564;SDS011;38460;53.106;7.004;2022-12-04T01:56:48;39.33;;;20.65;;
52564;SDS011;38460;53.106;7.004;2022-12-04T01:59:19;42.45;;;22.33;;
52564;SDS011;38460;53.106;7.004;2022-12-04T02:01:50;42.55;;;23.38;;
52564;SDS011;38460;53.106;7.004;2022-12-04T02:04:21;46.03;;;23.20;;
52564;SDS011;38460;53.106;7.004;2022-12-04T02:06:47;48.10;;;22.88;;
52564;SDS011;38460;53.106;7.004;2022-12-04T02:09:13;46.03;;;22.92;;
52564;SDS011;38460;53.106;7.004;2022-12-04T02:11:46;42.35;;;22.00;;
52564;SDS011;38460;53.106;7.004;2022-12-04T02:14:39;38.15;;;23.17;;
52564;SDS011;38460;53.106;7.004;2022-12-04T02:17:56;43.75;;;23.40;;
52564;SDS011;38460;53.106;7.004;2022-12-04T02:20:31;47.28;;;24.38;;
52564;SDS011;38460;53.106;7.004;2022-12-04T02:31:21;47.97;;;23.45;;
52564;SDS011;38460;53.106;7.004;2022-12-04T02:33:59;49.65;;;24.02;;
52564;SDS011;38460;53.106;7.004;2022-12-04T02:36:43;48.33;;;24.13;;
52564;SDS011;38460;53.106;7.004;2022-12-04T02:42:24;47.78;;;20.52;;
52564;SDS011;38460;53.106;7.004;2022-12-04T02:45:04;52.55;;;25.23;;
52564;SDS011;38460;53.106;7.004;2022-12-04T02:47:35;44.00;;;23.88;;
52564;SDS011;38460;53.106;7.004;2022-12-04T02:50:04;46.97;;;22.42;;
52564;SDS011;38460;53.106;7.004;2022-12-04T02:52:37;46.92;;;23.23;;
52564;SDS011;38460;53.106;7.004;2022-12-04T02:55:16;47.42;;;23.10;;
52564;SDS011;38460;53.106;7.004;2022-12-04T02:57:50;47.03;;;23.63;;
52564;SDS011;38460;53.106;7.004;2022-12-04T03:00:20;48.25;;;23.23;;
52564;SDS011;38460;53.106;7.004;2022-12-04T03:05:21;45.13;;;23.02;;
52564;SDS011;38460;53.106;7.004;2022-12-04T03:07:56;41.42;;;22.38;;
52564;SDS011;38460;53.106;7.004;2022-12-04T03:10:35;49.80;;;24.73;;
52564;SDS011;38460;53.106;7.004;2022-12-04T03:13:12;45.50;;;22.88;;
52564;SDS011;38460;53.106;7.004;2022-12-04T03:15:47;51.00;;;24.30;;
52564;SDS011;38460;53.106;7.004;2022-12-04T03:18:25;48.42;;;24.65;;
52564;SDS011;38460;53.106;7.004;2022-12-04T03:20:57;45.22;;;24.08;;
52564;SDS011;38460;53.106;7.004;2022-12-04T03:23:34;45.25;;;24.08;;
52564;SDS011;38460;53.106;7.004;2022-12-04T03:26:25;47.15;;;24.00;;
52564;SDS011;38460;53.106;7.004;2022-12-04T03:29:08;50.35;;;25.83;;
52564;SDS011;38460;53.106;7.004;2022-12-04T03:34:26;47.10;;;23.73;;
52564;SDS011;38460;53.106;7.004;2022-12-04T03:37:12;47.58;;;23.92;;
52564;SDS011;38460;53.106;7.004;2022-12-04T03:39:59;51.20;;;23.55;;
52564;SDS011;38460;53.106;7.004;2022-12-04T03:42:33;48.38;;;23.20;;
52564;SDS011;38460;53.106;7.004;2022-12-04T03:48:00;52.00;;;23.05;;
52564;SDS011;38460;53.106;7.004;2022-12-04T03:50:36;49.20;;;23.70;;
52564;SDS011;38460;53.106;7.004;2022-12-04T03:55:52;48.53;;;22.45;;
52564;SDS011;38460;53.106;7.004;2022-12-04T03:58:24;52.28;;;25.50;;
52564;SDS011;38460;53.106;7.004;2022-12-04T04:00:54;47.30;;;24.70;;
52564;SDS011;38460;53.106;7.004;2022-12-04T04:03:23;51.42;;;25.55;;
52564;SDS011;38460;53.106;7.004;2022-12-04T04:06:02;52.75;;;25.73;;
52564;SDS011;38460;53.106;7.004;2022-12-04T04:08:32;52.25;;;23.88;;
52564;SDS011;38460;53.106;7.004;2022-12-04T04:11:12;49.42;;;23.77;;
52564;SDS011;38460;53.106;7.004;2022-12-04T04:13:56;52.00;;;24.33;;
52564;SDS011;38460;53.106;7.004;2022-12-04T04:16:46;47.35;;;25.33;;
52564;SDS011;38460;53.106;7.004;2022-12-04T04:19:37;48.67;;;23.38;;
52564;SDS011;38460;53.106;7.004;2022-12-04T04:22:24;58.35;;;25.80;;
52564;SDS011;38460;53.106;7.004;2022-12-04T04:25:10;45.85;;;24.27;;
52564;SDS011;38460;53.106;7.004;2022-12-04T04:27:41;51.75;;;26.35;;
52564;SDS011;38460;53.106;7.004;2022-12-04T04:30:07;53.55;;;26.10;;
52564;SDS011;38460;53.106;7.004;2022-12-04T04:35:20;48.03;;;25.45;;
52564;SDS011;38460;53.106;7.004;2022-12-04T04:37:55;55.60;;;26.48;;
52564;SDS011;38460;53.106;7.004;2022-12-04T04:43:19;49.28;;;23.05;;
52564;SDS011;38460;53.106;7.004;2022-12-04T04:46:03;53.10;;;26.77;;
52564;SDS011;38460;53.106;7.004;2022-12-04T04:48:39;49.33;;;25.15;;
52564;SDS011;38460;53.106;7.004;2022-12-04T04:51:07;48.97;;;24.45;;
52564;SDS011;38460;53.106;7.004;2022-12-04T04:53:50;51.70;;;24.45;;
52564;SDS011;38460;53.106;7.004;2022-12-04T04:56:19;49.90;;;23.20;;
52564;SDS011;38460;53.106;7.004;2022-12-04T04:58:46;51.95;;;26.30;;
52564;SDS011;38460;53.106;7.004;2022-12-04T05:01:15;45.20;;;23.88;;
52564;SDS011;38460;53.106;7.004;2022-12-04T05:03:43;52.20;;;25.83;;
52564;SDS011;38460;53.106;7.004;2022-12-04T05:06:09;49.28;;;23.65;;
52564;SDS011;38460;53.106;7.004;2022-12-04T05:08:35;49.60;;;25.38;;
52564;SDS011;38460;53.106;7.004;2022-12-04T05:11:01;50.60;;;25.80;;
52564;SDS011;38460;53.106;7.004;2022-12-04T05:13:28;48.88;;;24.27;;
52564;SDS011;38460;53.106;7.004;2022-12-04T05:15:59;46.63;;;23.27;;
52564;SDS011;38460;53.106;7.004;2022-12-04T05:18:27;48.85;;;24.67;;
52564;SDS011;38460;53.106;7.004;2022-12-04T05:20:53;51.28;;;23.38;;
52564;SDS011;38460;53.106;7.004;2022-12-04T05:23:19;55.00;;;26.15;;
52564;SDS011;38460;53.106;7.004;2022-12-04T05:25:45;49.70;;;25.45;;
52564;SDS011;38460;53.106;7.004;2022-12-04T05:28:11;51.70;;;25.00;;
52564;SDS011;38460;53.106;7.004;2022-12-04T05:30:37;53.92;;;25.70;;
52564;SDS011;38460;53.106;7.004;2022-12-04T05:33:03;46.30;;;24.05;;
52564;SDS011;38460;53.106;7.004;2022-12-04T05:35:28;51.22;;;26.40;;
52564;SDS011;38460;53.106;7.004;2022-12-04T05:37:54;44.30;;;23.58;;
52564;SDS011;38460;53.106;7.004;2022-12-04T05:40:20;57.65;;;25.73;;
52564;SDS011;38460;53.106;7.004;2022-12-04T05:42:46;50.45;;;24.23;;
52564;SDS011;38460;53.106;7.004;2022-12-04T05:45:11;49.03;;;25.10;;
52564;SDS011;38460;53.106;7.004;2022-12-04T05:47:41;52.58;;;24.75;;
52564;SDS011;38460;53.106;7.004;2022-12-04T05:50:08;51.55;;;25.35;;
52564;SDS011;38460;53.106;7.004;2022-12-04T05:52:35;55.50;;;26.63;;
52564;SDS011;38460;53.106;7.004;2022-12-04T05:55:01;47.35;;;24.95;;
52564;SDS011;38460;53.106;7.004;2022-12-04T05:57:27;56.78;;;28.40;;
52564;SDS011;38460;53.106;7.004;2022-12-04T05:59:53;52.65;;;26.55;;
52564;SDS011;38460;53.106;7.004;2022-12-04T06:02:18;54.45;;;24.75;;
52564;SDS011;38460;53.106;7.004;2022-12-04T06:04:44;49.75;;;24.88;;
52564;SDS011;38460;53.106;7.004;2022-12-04T06:07:10;52.90;;;24.70;;
52564;SDS011;38460;53.106;7.004;2022-12-04T06:09:36;53.33;;;25.45;;
52564;SDS011;38460;53.106;7.004;2022-12-04T06:12:02;53.95;;;24.60;;
52564;SDS011;38460;53.106;7.004;2022-12-04T06:14:29;54.97;;;28.15;;
52564;SDS011;38460;53.106;7.004;2022-12-04T06:16:54;53.25;;;24.35;;
52564;SDS011;38460;53.106;7.004;2022-12-04T06:19:20;50.63;;;24.20;;
52564;SDS011;38460;53.106;7.004;2022-12-04T06:21:47;50.92;;;25.05;;
52564;SDS011;38460;53.106;7.004;2022-12-04T06:24:20;55.05;;;26.30;;
52564;SDS011;38460;53.106;7.004;2022-12-04T06:26:48;51.60;;;24.85;;
52564;SDS011;38460;53.106;7.004;2022-12-04T06:29:14;47.80;;;24.50;;
52564;SDS011;38460;53.106;7.004;2022-12-04T06:31:40;57.60;;;26.73;;
52564;SDS011;38460;53.106;7.004;2022-12-04T06:34:07;52.97;;;25.85;;
52564;SDS011;38460;53.106;7.004;2022-12-04T06:36:33;48.03;;;24.90;;
52564;SDS011;38460;53.106;7.004;2022-12-04T06:38:59;52.35;;;25.42;;
52564;SDS011;38460;53.106;7.004;2022-12-04T06:41:26;49.13;;;24.20;;
52564;SDS011;38460;53.106;7.004;2022-12-04T06:43:53;54.67;;;25.85;;
52564;SDS011;38460;53.106;7.004;2022-12-04T06:46:20;49.20;;;24.42;;
52564;SDS011;38460;53.106;7.004;2022-12-04T06:48:47;49.80;;;25.95;;
52564;SDS011;38460;53.106;7.004;2022-12-04T06:51:17;51.13;;;24.88;;
52564;SDS011;38460;53.106;7.004;2022-12-04T06:53:46;49.30;;;24.70;;
52564;SDS011;38460;53.106;7.004;2022-12-04T06:56:14;44.08;;;24.63;;
52564;SDS011;38460;53.106;7.004;2022-12-04T06:58:46;51.75;;;24.23;;
52564;SDS011;38460;53.106;7.004;2022-12-04T07:01:14;58.65;;;26.15;;
52564;SDS011;38460;53.106;7.004;2022-12-04T07:03:42;54.22;;;25.70;;
52564;SDS011;38460;53.106;7.004;2022-12-04T07:06:19;49.80;;;25.75;;
52564;SDS011;38460;53.106;7.004;2022-12-04T07:09:14;51.58;;;25.05;;
52564;SDS011;38460;53.106;7.004;2022-12-04T07:11:42;45.47;;;26.00;;
52564;SDS011;38460;53.106;7.004;2022-12-04T07:14:09;52.78;;;24.73;;
52564;SDS011;38460;53.106;7.004;2022-12-04T07:16:35;48.38;;;24.85;;
52564;SDS011;38460;53.106;7.004;2022-12-04T07:19:02;51.30;;;25.42;;
52564;SDS011;38460;53.106;7.004;2022-12-04T07:21:29;54.40;;;26.25;;
52564;SDS011;38460;53.106;7.004;2022-12-04T07:23:57;53.08;;;25.05;;
52564;SDS011;38460;53.106;7.004;2022-12-04T07:26:24;49.38;;;25.67;;
52564;SDS011;38460;53.106;7.004;2022-12-04T07:28:52;46.50;;;23.35;;
52564;SDS011;38460;53.106;7.004;2022-12-04T07:31:19;52.88;;;26.02;;
52564;SDS011;38460;53.106;7.004;2022-12-04T07:33:46;57.28;;;25.52;;
52564;SDS011;38460;53.106;7.004;2022-12-04T07:36:13;49.38;;;24.30;;
52564;SDS011;38460;53.106;7.004;2022-12-04T07:38:41;51.65;;;24.90;;
52564;SDS011;38460;53.106;7.004;2022-12-04T07:41:07;49.13;;;25.05;;
52564;SDS011;38460;53.106;7.004;2022-12-04T07:43:34;50.30;;;26.67;;
52564;SDS011;38460;53.106;7.004;2022-12-04T07:46:07;50.42;;;25.50;;
52564;SDS011;38460;53.106;7.004;2022-12-04T07:48:41;50.53;;;24.30;;
52564;SDS011;38460;53.106;7.004;2022-12-04T07:51:08;53.55;;;24.58;;
52564;SDS011;38460;53.106;7.004;2022-12-04T07:53:36;48.42;;;23.70;;
52564;SDS011;38460;53.106;7.004;2022-12-04T07:56:03;53.35;;;24.60;;
52564;SDS011;38460;53.106;7.004;2022-12-04T07:58:30;51.58;;;23.63;;
52564;SDS011;38460;53.106;7.004;2022-12-04T08:01:09;53.05;;;24.45;;
52564;SDS011;38460;53.106;7.004;2022-12-04T08:03:37;45.33;;;23.27;;
52564;SDS011;38460;53.106;7.004;2022-12-04T08:06:04;44.65;;;22.13;;
52564;SDS011;38460;53.106;7.004;2022-12-04T08:08:31;50.17;;;24.23;;
52564;SDS011;38460;53.106;7.004;2022-12-04T08:10:57;41.97;;;22.85;;
52564;SDS011;38460;53.106;7.004;2022-12-04T08:13:23;42.47;;;22.00;;
52564;SDS011;38460;53.106;7.004;2022-12-04T08:15:49;48.50;;;23.88;;
52564;SDS011;38460;53.106;7.004;2022-12-04T08:18:15;50.50;;;25.15;;
52564;SDS011;38460;53.106;7.004;2022-12-04T08:20:41;46.03;;;23.48;;
52564;SDS011;38460;53.106;7.004;2022-12-04T08:23:07;42.83;;;22.38;;
52564;SDS011;38460;53.106;7.004;2022-12-04T08:25:33;41.78;;;21.25;;
52564;SDS011;38460;53.106;7.004;2022-12-04T08:28:01;42.85;;;22.13;;
52564;SDS011;38460;53.106;7.004;2022-12-04T08:30:27;42.33;;;22.85;;
52564;SDS011;38460;53.106;7.004;2022-12-04T08:32:53;47.30;;;23.80;;
52564;SDS011;38460;53.106;7.004;2022-12-04T08:35:18;45.05;;;23.63;;
52564;SDS011;38460;53.106;7.004;2022-12-04T08:37:44;49.60;;;23.25;;
52564;SDS011;38460;53.106;7.004;2022-12-04T08:40:10;48.97;;;24.67;;
52564;SDS011;38460;53.106;7.004;2022-12-04T08:42:36;42.30;;;21.42;;
52564;SDS011;38460;53.106;7.004;2022-12-04T08:45:02;42.47;;;23.40;;
52564;SDS011;38460;53.106;7.004;2022-12-04T08:47:28;45.10;;;24.42;;
52564;SDS011;38460;53.106;7.004;2022-12-04T08:49:54;47.17;;;24.50;;
52564;SDS011;38460;53.106;7.004;2022-12-04T08:52:19;40.97;;;22.20;;
52564;SDS011;38460;53.106;7.004;2022-12-04T08:54:45;43.60;;;22.50;;
52564;SDS011;38460;53.106;7.004;2022-12-04T08:57:11;39.72;;;21.27;;
52564;SDS011;38460;53.106;7.004;2022-12-04T08:59:36;41.63;;;21.73;;
52564;SDS011;38460;53.106;7.004;2022-12-04T09:02:02;41.92;;;20.42;;
52564;SDS011;38460;53.106;7.004;2022-12-04T09:04:28;47.15;;;22.48;;
52564;SDS011;38460;53.106;7.004;2022-12-04T09:06:53;39.03;;;21.10;;
52564;SDS011;38460;53.106;7.004;2022-12-04T09:09:19;43.22;;;21.20;;
52564;SDS011;38460;53.106;7.004;2022-12-04T09:11:45;43.72;;;21.83;;
52564;SDS011;38460;53.106;7.004;2022-12-04T09:14:11;41.67;;;23.25;;
52564;SDS011;38460;53.106;7.004;2022-12-04T09:16:36;42.58;;;22.67;;
52564;SDS011;38460;53.106;7.004;2022-12-04T09:19:02;44.05;;;21.83;;
52564;SDS011;38460;53.106;7.004;2022-12-04T09:21:28;40.38;;;20.23;;
52564;SDS011;38460;53.106;7.004;2022-12-04T09:23:54;41.40;;;21.98;;
52564;SDS011;38460;53.106;7.004;2022-12-04T09:26:24;37.38;;;19.60;;
52564;SDS011;38460;53.106;7.004;2022-12-04T09:28:58;42.70;;;21.25;;
52564;SDS011;38460;53.106;7.004;2022-12-04T09:31:24;37.65;;;20.75;;
52564;SDS011;38460;53.106;7.004;2022-12-04T09:33:50;39.10;;;19.73;;
52564;SDS011;38460;53.106;7.004;2022-12-04T09:36:16;36.88;;;18.40;;
52564;SDS011;38460;53.106;7.004;2022-12-04T09:38:43;35.30;;;19.40;;
52564;SDS011;38460;53.106;7.004;2022-12-04T09:44:17;37.38;;;19.50;;
52564;SDS011;38460;53.106;7.004;2022-12-04T09:49:22;34.58;;;19.40;;
52564;SDS011;38460;53.106;7.004;2022-12-04T09:52:02;36.92;;;19.00;;
52564;SDS011;38460;53.106;7.004;2022-12-04T09:54:36;31.38;;;18.38;;
52564;SDS011;38460;53.106;7.004;2022-12-04T09:57:11;39.42;;;18.08;;
52564;SDS011;38460;53.106;7.004;2022-12-04T09:59:41;32.75;;;18.45;;
52564;SDS011;38460;53.106;7.004;2022-12-04T10:04:57;37.30;;;17.58;;
52564;SDS011;38460;53.106;7.004;2022-12-04T10:07:28;37.03;;;17.38;;
52564;SDS011;38460;53.106;7.004;2022-12-04T10:12:48;34.42;;;19.02;;
52564;SDS011;38460;53.106;7.004;2022-12-04T10:18:07;35.13;;;18.60;;
52564;SDS011;38460;53.106;7.004;2022-12-04T10:20:41;29.75;;;15.80;;
52564;SDS011;38460;53.106;7.004;2022-12-04T10:23:32;31.70;;;17.30;;
52564;SDS011;38460;53.106;7.004;2022-12-04T10:26:10;33.22;;;16.98;;
52564;SDS011;38460;53.106;7.004;2022-12-04T10:28:54;31.48;;;17.30;;
52564;SDS011;38460;53.106;7.004;2022-12-04T10:31:26;30.38;;;16.45;;
52564;SDS011;38460;53.106;7.004;2022-12-04T10:33:58;33.35;;;17.55;;
52564;SDS011;38460;53.106;7.004;2022-12-04T10:36:30;32.10;;;16.75;;
52564;SDS011;38460;53.106;7.004;2022-12-04T10:41:34;32.40;;;16.23;;
52564;SDS011;38460;53.106;7.004;2022-12-04T10:44:02;27.65;;;14.95;;
52564;SDS011;38460;53.106;7.004;2022-12-04T10:46:30;25.42;;;14.38;;
52564;SDS011;38460;53.106;7.004;2022-12-04T10:49:02;26.15;;;15.60;;
52564;SDS011;38460;53.106;7.004;2022-12-04T10:51:40;26.38;;;14.70;;
52564;SDS011;38460;53.106;7.004;2022-12-04T10:57:00;28.13;;;15.88;;
52564;SDS011;38460;53.106;7.004;2022-12-04T10:59:33;29.15;;;15.65;;
52564;SDS011;38460;53.106;7.004;2022-12-04T11:04:55;30.70;;;16.55;;
52564;SDS011;38460;53.106;7.004;2022-12-04T11:07:31;29.30;;;16.42;;
52564;SDS011;38460;53.106;7.004;2022-12-04T11:10:06;27.05;;;14.73;;
52564;SDS011;38460;53.106;7.004;2022-12-04T11:15:19;24.20;;;14.20;;
52564;SDS011;38460;53.106;7.004;2022-12-04T11:17:46;28.40;;;14.88;;
52564;SDS011;38460;53.106;7.004;2022-12-04T11:20:14;33.60;;;16.08;;
52564;SDS011;38460;53.106;7.004;2022-12-04T11:22:52;27.83;;;15.48;;
52564;SDS011;38460;53.106;7.004;2022-12-04T11:25:26;31.65;;;15.82;;
52564;SDS011;38460;53.106;7.004;2022-12-04T11:27:58;29.60;;;15.57;;
52564;SDS011;38460;53.106;7.004;2022-12-04T11:30:36;26.23;;;15.18;;
52564;SDS011;38460;53.106;7.004;2022-12-04T11:33:03;30.42;;;15.90;;
52564;SDS011;38460;53.106;7.004;2022-12-04T11:35:39;32.08;;;17.25;;
52564;SDS011;38460;53.106;7.004;2022-12-04T11:38:12;29.20;;;15.65;;
52564;SDS011;38460;53.106;7.004;2022-12-04T11:40:47;28.52;;;15.15;;
52564;SDS011;38460;53.106;7.004;2022-12-04T11:43:16;29.58;;;16.52;;
52564;SDS011;38460;53.106;7.004;2022-12-04T11:45:56;31.88;;;16.92;;
52564;SDS011;38460;53.106;7.004;2022-12-04T11:48:23;29.98;;;15.27;;
52564;SDS011;38460;53.106;7.004;2022-12-04T11:51:07;26.77;;;16.55;;
52564;SDS011;38460;53.106;7.004;2022-12-04T11:58:56;27.52;;;15.07;;
52564;SDS011;38460;53.106;7.004;2022-12-04T12:01:46;28.70;;;15.48;;
52564;SDS011;38460;53.106;7.004;2022-12-04T12:10:18;26.83;;;15.13;;
52564;SDS011;38460;53.106;7.004;2022-12-04T12:15:40;28.75;;;15.10;;
52564;SDS011;38460;53.106;7.004;2022-12-04T12:26:20;25.17;;;13.73;;
52564;SDS011;38460;53.106;7.004;2022-12-04T12:29:06;31.83;;;16.30;;
52564;SDS011;38460;53.106;7.004;2022-12-04T12:34:51;28.50;;;15.93;;
52564;SDS011;38460;53.106;7.004;2022-12-04T12:40:14;32.78;;;15.30;;
52564;SDS011;38460;53.106;7.004;2022-12-04T12:43:11;26.50;;;15.02;;
52564;SDS011;38460;53.106;7.004;2022-12-04T12:46:04;30.23;;;15.63;;
52564;SDS011;38460;53.106;7.004;2022-12-04T12:57:11;29.08;;;16.27;;
52564;SDS011;38460;53.106;7.004;2022-12-04T12:59:42;28.45;;;15.48;;
52564;SDS011;38460;53.106;7.004;2022-12-04T13:04:52;28.52;;;15.30;;
52564;SDS011;38460;53.106;7.004;2022-12-04T13:07:34;30.27;;;16.27;;
52564;SDS011;38460;53.106;7.004;2022-12-04T13:10:18;30.98;;;16.15;;
52564;SDS011;38460;53.106;7.004;2022-12-04T13:12:59;28.45;;;16.17;;
52564;SDS011;38460;53.106;7.004;2022-12-04T13:15:38;34.50;;;18.27;;
52564;SDS011;38460;53.106;7.004;2022-12-04T13:18:29;31.67;;;17.00;;
52564;SDS011;38460;53.106;7.004;2022-12-04T13:20:59;28.80;;;17.20;;
52564;SDS011;38460;53.106;7.004;2022-12-04T13:28:53;31.77;;;16.58;;
52564;SDS011;38460;53.106;7.004;2022-12-04T13:42:33;33.40;;;18.30;;
52564;SDS011;38460;53.106;7.004;2022-12-04T13:45:01;39.08;;;20.00;;
52564;SDS011;38460;53.106;7.004;2022-12-04T13:47:32;33.60;;;19.02;;
52564;SDS011;38460;53.106;7.004;2022-12-04T13:52:43;37.22;;;19.67;;
52564;SDS011;38460;53.106;7.004;2022-12-04T13:58:02;42.03;;;19.67;;
52564;SDS011;38460;53.106;7.004;2022-12-04T14:00:57;41.40;;;22.23;;
52564;SDS011;38460;53.106;7.004;2022-12-04T14:03:31;42.70;;;21.35;;
52564;SDS011;38460;53.106;7.004;2022-12-04T14:08:35;31.95;;;18.17;;
52564;SDS011;38460;53.106;7.004;2022-12-04T14:13:47;37.67;;;19.05;;
52564;SDS011;38460;53.106;7.004;2022-12-04T14:19:00;35.75;;;17.67;;
52564;SDS011;38460;53.106;7.004;2022-12-04T14:21:41;32.92;;;16.77;;
52564;SDS011;38460;53.106;7.004;2022-12-04T14:26:54;29.38;;;16.83;;
52564;SDS011;38460;53.106;7.004;2022-12-04T14:31:56;31.30;;;16.48;;
52564;SDS011;38460;53.106;7.004;2022-12-04T14:34:30;30.67;;;17.40;;
52564;SDS011;38460;53.106;7.004;2022-12-04T14:36:59;30.80;;;16.45;;
52564;SDS011;38460;53.106;7.004;2022-12-04T14:39:27;28.58;;;16.42;;
52564;SDS011;38460;53.106;7.004;2022-12-04T14:42:27;30.55;;;16.73;;
52564;SDS011;38460;53.106;7.004;2022-12-04T14:45:01;29.60;;;15.82;;
52564;SDS011;38460;53.106;7.004;2022-12-04T14:51:19;33.47;;;18.23;;
52564;SDS011;38460;53.106;7.004;2022-12-04T14:56:03;38.05;;;17.52;;
52564;SDS011;38460;53.106;7.004;2022-12-04T14:58:43;31.25;;;16.35;;
52564;SDS011;38460;53.106;7.004;2022-12-04T15:01:22;32.03;;;16.75;;
52564;SDS011;38460;53.106;7.004;2022-12-04T15:03:52;33.05;;;16.75;;
52564;SDS011;38460;53.106;7.004;2022-12-04T15:06:30;30.67;;;16.38;;
52564;SDS011;38460;53.106;7.004;2022-12-04T15:08:58;28.95;;;17.38;;
52564;SDS011;38460;53.106;7.004;2022-12-04T15:11:49;29.35;;;18.00;;
52564;SDS011;38460;53.106;7.004;2022-12-04T15:14:41;34.03;;;17.52;;
52564;SDS011;38460;53.106;7.004;2022-12-04T15:17:09;37.88;;;18.88;;
52564;SDS011;38460;53.106;7.004;2022-12-04T15:19:35;30.77;;;17.35;;
52564;SDS011;38460;53.106;7.004;2022-12-04T15:25:00;36.47;;;17.67;;
52564;SDS011;38460;53.106;7.004;2022-12-04T15:27:26;34.50;;;16.92;;
52564;SDS011;38460;53.106;7.004;2022-12-04T15:29:53;38.47;;;18.67;;
52564;SDS011;38460;53.106;7.004;2022-12-04T15:32:21;36.38;;;18.90;;
52564;SDS011;38460;53.106;7.004;2022-12-04T15:34:52;37.47;;;18.98;;
52564;SDS011;38460;53.106;7.004;2022-12-04T15:37:26;40.67;;;20.10;;
52564;SDS011;38460;53.106;7.004;2022-12-04T15:39:54;40.03;;;21.10;;
52564;SDS011;38460;53.106;7.004;2022-12-04T15:44:50;37.20;;;20.60;;
52564;SDS011;38460;53.106;7.004;2022-12-04T15:47:21;40.30;;;19.55;;
52564;SDS011;38460;53.106;7.004;2022-12-04T15:49:48;39.40;;;20.55;;
52564;SDS011;38460;53.106;7.004;2022-12-04T15:52:15;36.85;;;20.10;;
52564;SDS011;38460;53.106;7.004;2022-12-04T15:54:55;37.38;;;20.75;;
52564;SDS011;38460;53.106;7.004;2022-12-04T15:57:28;37.47;;;18.75;;
52564;SDS011;38460;53.106;7.004;2022-12-04T15:59:58;38.30;;;20.48;;
52564;SDS011;38460;53.106;7.004;2022-12-04T16:02:27;38.05;;;18.50;;
52564;SDS011;38460;53.106;7.004;2022-12-04T16:04:55;36.28;;;20.25;;
52564;SDS011;38460;53.106;7.004;2022-12-04T16:07:26;41.80;;;20.67;;
52564;SDS011;38460;53.106;7.004;2022-12-04T16:09:57;38.45;;;19.63;;
52564;SDS011;38460;53.106;7.004;2022-12-04T16:12:25;40.50;;;19.83;;
52564;SDS011;38460;53.106;7.004;2022-12-04T16:14:54;38.92;;;19.02;;
52564;SDS011;38460;53.106;7.004;2022-12-04T16:17:25;37.47;;;19.95;;
52564;SDS011;38460;53.106;7.004;2022-12-04T16:19:54;44.03;;;21.50;;
52564;SDS011;38460;53.106;7.004;2022-12-04T16:22:21;41.92;;;21.45;;
52564;SDS011;38460;53.106;7.004;2022-12-04T16:24:48;40.63;;;20.00;;
52564;SDS011;38460;53.106;7.004;2022-12-04T16:27:15;37.45;;;21.02;;
52564;SDS011;38460;53.106;7.004;2022-12-04T16:29:44;38.08;;;19.15;;
52564;SDS011;38460;53.106;7.004;2022-12-04T16:32:10;35.30;;;20.00;;
52564;SDS011;38460;53.106;7.004;2022-12-04T16:34:38;38.75;;;20.10;;
52564;SDS011;38460;53.106;7.004;2022-12-04T16:37:14;33.90;;;20.25;;
52564;SDS011;38460;53.106;7.004;2022-12-04T16:39:42;38.35;;;19.08;;
52564;SDS011;38460;53.106;7.004;2022-12-04T16:42:18;40.50;;;19.95;;
52564;SDS011;38460;53.106;7.004;2022-12-04T16:44:45;35.53;;;19.10;;
52564;SDS011;38460;53.106;7.004;2022-12-04T16:47:11;38.45;;;21.17;;
52564;SDS011;38460;53.106;7.004;2022-12-04T16:49:38;32.65;;;18.88;;
52564;SDS011;38460;53.106;7.004;2022-12-04T16:52:04;36.53;;;18.88;;
52564;SDS011;38460;53.106;7.004;2022-12-04T16:54:30;34.00;;;18.80;;
52564;SDS011;38460;53.106;7.004;2022-12-04T16:56:56;37.22;;;19.00;;
52564;SDS011;38460;53.106;7.004;2022-12-04T16:59:22;38.22;;;19.75;;
52564;SDS011;38460;53.106;7.004;2022-12-04T17:01:48;36.78;;;20.15;;